Time;durP1;ratioP1;P1;durP2;ratioP2;P2;SDS_P1;SDS_P2;PMS_P1;PMS_P2;Temp;Humidity;BMP_temperature;BMP_pressure;BME280_temperature;BME280_humidity;BME280_pressure;Samples;Min_cycle;Max_cycle;Signal;HPM_P1;HPM_P2
2023/05/04 00:02:01;;;;;;;3.05;2.10;;;13.40;90.00;;;;;;10398217;28;20041;-87
2023/05/04 00:07:02;;;;;;;3.45;2.17;;;13.30;89.90;;;;;;10390358;28;20060;-88
2023/05/04 00:12:02;;;;;;;2.63;2.05;;;13.30;89.90;;;;;;10392785;28;20017;-87
2023/05/04 00:17:05;;;;;;;3.33;2.08;;;13.20;89.80;;;;;;10395403;28;20389;-88
2023/05/04 00:22:06;;;;;;;3.45;2.05;;;13.20;89.90;;;;;;10394378;28;20071;-87
2023/05/04 00:27:06;;;;;;;2.35;1.90;;;13.70;90.00;;;;;;10393540;28;20045;-87
2023/05/04 00:32:08;;;;;;;2.53;1.85;;;13.60;90.00;;;;;;10397552;28;20029;-88
2023/05/04 00:37:09;;;;;;;3.55;1.90;;;14.00;90.10;;;;;;10395223;28;20417;-87
2023/05/04 00:42:09;;;;;;;3.47;2.28;;;13.60;90.00;;;;;;10405645;28;20034;-87
2023/05/04 00:47:11;;;;;;;4.82;2.20;;;13.50;90.00;;;;;;10392719;28;20543;-87
2023/05/04 00:52:14;;;;;;;2.47;1.85;;;13.20;89.80;;;;;;10406840;28;20174;-87
2023/05/04 00:57:15;;;;;;;3.05;2.20;;;13.50;90.00;;;;;;10391238;28;20029;-87
2023/05/04 01:02:16;;;;;;;2.17;1.70;;;13.00;89.70;;;;;;10410049;28;20033;-87
2023/05/04 01:07:35;;;;;;;3.33;1.83;;;13.40;89.90;;;;;;10391475;28;20021;-87
2023/05/04 01:12:43;;;;;;;3.33;1.92;;;12.90;89.50;;;;;;10403305;28;20030;-87
2023/05/04 01:17:44;;;;;;;5.22;1.90;;;12.90;89.60;;;;;;10393543;28;20506;-87
2023/05/04 01:22:44;;;;;;;3.03;1.95;;;13.50;89.90;;;;;;10386436;28;20112;-88
2023/05/04 01:27:55;;;;;;;3.75;2.08;;;12.80;89.50;;;;;;10395457;28;20501;-87
2023/05/04 01:32:59;;;;;;;2.85;1.83;;;12.80;89.40;;;;;;10392690;28;20049;-87
2023/05/04 01:38:00;;;;;;;3.63;2.25;;;12.80;89.40;;;;;;10389168;28;20184;-87
2023/05/04 01:43:00;;;;;;;2.40;1.92;;;12.80;89.50;;;;;;10384150;28;20048;-87
2023/05/04 01:48:01;;;;;;;2.45;1.92;;;13.80;90.00;;;;;;10387331;28;20399;-87
2023/05/04 01:53:02;;;;;;;2.70;1.98;;;12.70;89.40;;;;;;10395157;28;20026;-88
2023/05/04 01:58:03;;;;;;;3.60;2.20;;;13.40;89.80;;;;;;10391054;28;20381;-87
2023/05/04 02:03:03;;;;;;;5.72;2.05;;;13.10;89.60;;;;;;10385118;28;20466;-87
2023/05/04 02:08:04;;;;;;;2.20;1.60;;;12.60;89.40;;;;;;10398685;28;20022;-87
2023/05/04 02:13:05;;;;;;;3.63;2.13;;;12.60;89.40;;;;;;10396193;28;20025;-87
2023/05/04 02:18:05;;;;;;;4.00;3.25;;;13.60;89.90;;;;;;10397535;28;20018;-88
2023/05/04 02:23:06;;;;;;;3.10;2.28;;;12.60;89.40;;;;;;10397923;28;20026;-88
2023/05/04 02:28:07;;;;;;;5.55;2.30;;;12.80;89.50;;;;;;10414094;28;20393;-87
2023/05/04 02:33:07;;;;;;;4.50;2.33;;;12.50;89.40;;;;;;10398515;28;20021;-87
2023/05/04 02:38:08;;;;;;;3.20;1.88;;;13.30;89.80;;;;;;10396885;28;20041;-87
2023/05/04 02:43:08;;;;;;;3.28;1.83;;;12.50;89.40;;;;;;10395181;28;20393;-87
2023/05/04 02:48:09;;;;;;;2.35;1.85;;;12.50;89.40;;;;;;10400926;28;20068;-88
2023/05/04 02:53:10;;;;;;;2.88;1.98;;;13.20;89.80;;;;;;10399709;28;20280;-87
2023/05/04 02:58:10;;;;;;;4.15;1.83;;;13.00;89.70;;;;;;10401308;28;20045;-87
2023/05/04 03:03:11;;;;;;;3.03;2.03;;;12.40;89.30;;;;;;10398832;28;20034;-88
2023/05/04 03:08:12;;;;;;;3.03;2.17;;;12.40;89.30;;;;;;10397887;28;20021;-87
2023/05/04 03:13:12;;;;;;;4.63;2.20;;;12.40;89.30;;;;;;10400854;28;20095;-88
2023/05/04 03:18:13;;;;;;;4.35;2.33;;;12.30;89.30;;;;;;10398244;28;20017;-87
2023/05/04 03:23:13;;;;;;;3.83;2.15;;;12.90;89.60;;;;;;10403136;28;20231;-87
2023/05/04 03:28:14;;;;;;;5.22;2.25;;;12.30;89.40;;;;;;10394409;28;20453;-87
2023/05/04 03:33:15;;;;;;;3.05;2.42;;;12.20;89.30;;;;;;10397078;28;20033;-88
2023/05/04 03:38:15;;;;;;;3.10;2.15;;;13.00;89.70;;;;;;10389203;28;20162;-87
2023/05/04 03:43:16;;;;;;;2.70;1.88;;;12.20;89.30;;;;;;10396986;28;20600;-87
2023/05/04 03:48:17;;;;;;;7.05;2.50;;;13.00;89.70;;;;;;10395931;28;20025;-87
2023/05/04 03:53:17;;;;;;;3.00;2.28;;;12.20;89.30;;;;;;10406904;28;20029;-87
2023/05/04 03:58:18;;;;;;;4.03;2.55;;;12.20;89.40;;;;;;10389561;28;20036;-87
2023/05/04 04:03:20;;;;;;;3.65;2.45;;;12.10;89.40;;;;;;10390126;28;20050;-88
2023/05/04 04:08:20;;;;;;;5.13;2.58;;;13.00;89.80;;;;;;10398551;28;20054;-87
2023/05/04 04:13:21;;;;;;;4.38;2.53;;;12.10;89.40;;;;;;10393694;28;20071;-87
2023/05/04 04:18:23;;;;;;;4.05;2.25;;;12.10;89.40;;;;;;10391660;28;20540;-87
2023/05/04 04:23:23;;;;;;;5.65;2.20;;;12.10;89.40;;;;;;10400507;28;20022;-87
2023/05/04 04:28:24;;;;;;;4.45;2.45;;;12.00;89.40;;;;;;10396816;28;20067;-87
2023/05/04 04:33:25;;;;;;;3.78;2.35;;;13.00;89.90;;;;;;10395309;28;20029;-87
2023/05/04 04:38:26;;;;;;;4.97;3.40;;;12.00;89.40;;;;;;10406580;28;20026;-87
2023/05/04 04:43:26;;;;;;;4.57;2.58;;;12.00;89.40;;;;;;10395309;28;20029;-87
2023/05/04 04:48:27;;;;;;;5.07;2.45;;;12.00;89.40;;;;;;10389635;28;20656;-87
2023/05/04 04:53:28;;;;;;;7.47;2.70;;;12.70;89.80;;;;;;10387132;28;20468;-87
2023/05/04 04:58:28;;;;;;;8.55;2.90;;;12.00;89.40;;;;;;10392930;28;20030;-87
2023/05/04 05:03:30;;;;;;;3.63;2.40;;;12.70;89.80;;;;;;10395263;28;20037;-87
2023/05/04 05:08:31;;;;;;;3.47;2.47;;;12.50;89.70;;;;;;10386863;28;20108;-87
2023/05/04 05:13:32;;;;;;;4.22;2.22;;;12.40;89.60;;;;;;10393651;28;20021;-88
2023/05/04 05:18:33;;;;;;;4.47;2.30;;;12.70;89.70;;;;;;10384901;28;20478;-87
2023/05/04 05:23:34;;;;;;;3.50;2.25;;;12.00;89.30;;;;;;10411999;28;20040;-87
2023/05/04 05:28:35;;;;;;;3.22;2.00;;;12.60;89.70;;;;;;10404491;28;20424;-88
2023/05/04 05:33:37;;;;;;;4.25;2.28;;;13.10;89.90;;;;;;10395073;28;20045;-87
2023/05/04 05:38:40;;;;;;;5.57;2.60;;;12.40;89.00;;;;;;10388580;28;20083;-89
2023/05/04 05:43:41;;;;;;;3.75;2.40;;;12.00;89.20;;;;;;10405292;28;20040;-87
2023/05/04 05:48:42;;;;;;;3.90;2.72;;;12.00;89.10;;;;;;10397765;28;20489;-88
2023/05/04 05:53:43;;;;;;;4.80;2.40;;;12.00;89.10;;;;;;10393140;28;20034;-87
2023/05/04 05:58:44;;;;;;;6.82;2.45;;;12.00;89.10;;;;;;10393053;28;20022;-83
2023/05/04 06:03:46;;;;;;;5.63;2.65;;;12.00;89.10;;;;;;10409935;28;20223;-86
2023/05/04 06:13:50;;;;;;;3.22;2.03;;;12.00;88.90;;;;;;10440341;28;20049;-67
2023/05/04 06:18:50;;;;;;;5.00;2.60;;;12.00;88.90;;;;;;10439872;28;20032;-67
2023/05/04 06:23:51;;;;;;;4.22;2.58;;;12.00;88.80;;;;;;10437306;28;20606;-67
2023/05/04 06:28:51;;;;;;;4.65;2.25;;;12.10;88.90;;;;;;10433634;28;20116;-68
2023/05/04 06:33:52;;;;;;;3.60;2.25;;;12.10;88.80;;;;;;10429786;28;20035;-66
2023/05/04 06:38:54;;;;;;;4.90;2.30;;;12.10;88.80;;;;;;10427731;28;20045;-69
2023/05/04 06:43:56;;;;;;;4.07;2.30;;;12.10;88.90;;;;;;10438146;28;20025;-67
2023/05/04 06:48:57;;;;;;;5.28;2.38;;;12.10;88.90;;;;;;10428779;28;20048;-68
2023/05/04 06:53:59;;;;;;;9.65;3.10;;;12.10;88.90;;;;;;10439048;28;20116;-68
2023/05/04 06:59:00;;;;;;;5.25;3.05;;;12.20;89.00;;;;;;10439521;28;20048;-67
2023/05/04 07:04:01;;;;;;;5.57;3.05;;;12.20;89.10;;;;;;10437553;28;20060;-67
2023/05/04 07:09:02;;;;;;;6.70;2.58;;;12.20;89.10;;;;;;10434076;28;20021;-67
2023/05/04 07:14:03;;;;;;;6.20;2.83;;;12.20;89.00;;;;;;10440451;28;20029;-67
2023/05/04 07:19:04;;;;;;;4.82;2.90;;;12.20;88.90;;;;;;10439325;28;20083;-66
2023/05/04 07:24:05;;;;;;;5.00;2.67;;;12.30;89.20;;;;;;10435911;28;20124;-67
2023/05/04 07:29:06;;;;;;;4.53;2.47;;;12.30;89.20;;;;;;10440784;28;20017;-67
2023/05/04 07:34:07;;;;;;;6.35;3.08;;;12.30;89.10;;;;;;10434836;28;20392;-67
2023/05/04 07:39:07;;;;;;;5.72;2.70;;;12.40;89.70;;;;;;10439785;28;20090;-67
2023/05/04 07:44:10;;;;;;;6.13;2.63;;;12.40;89.10;;;;;;10442075;28;20059;-66
2023/05/04 07:49:10;;;;;;;5.15;2.70;;;12.50;89.00;;;;;;10439173;28;20025;-66
2023/05/04 07:54:11;;;;;;;4.72;2.75;;;12.40;89.00;;;;;;10443223;28;20033;-66
2023/05/04 07:59:12;;;;;;;7.28;3.20;;;12.50;89.00;;;;;;10441896;28;20413;-67
2023/05/04 08:04:12;;;;;;;4.70;2.95;;;12.50;89.00;;;;;;10439013;28;20033;-67
2023/05/04 08:09:13;;;;;;;5.55;2.70;;;12.50;89.00;;;;;;10437102;28;20029;-67
2023/05/04 08:14:14;;;;;;;3.20;2.30;;;12.50;89.00;;;;;;10432681;28;20025;-66
2023/05/04 08:19:14;;;;;;;5.25;2.35;;;12.60;89.10;;;;;;10433587;28;20031;-66
2023/05/04 08:24:22;;;;;;;7.80;2.60;;;12.70;89.10;;;;;;10436083;28;20123;-65
2023/05/04 08:29:22;;;;;;;4.07;2.45;;;12.70;89.30;;;;;;10437108;28;20036;-65
2023/05/04 08:34:23;;;;;;;3.47;2.20;;;12.70;89.30;;;;;;10428472;28;20037;-65
2023/05/04 08:39:24;;;;;;;3.97;2.60;;;12.80;89.30;;;;;;10432509;28;20017;-65
2023/05/04 08:44:24;;;;;;;4.38;2.20;;;12.80;89.40;;;;;;10429514;28;20036;-65
2023/05/04 08:49:27;;;;;;;6.13;2.50;;;12.80;89.40;;;;;;10437193;28;20013;-65
2023/05/04 08:54:28;;;;;;;4.43;2.70;;;12.90;89.60;;;;;;10435871;28;20499;-70
2023/05/04 08:59:32;;;;;;;10.85;5.50;;;12.80;89.60;;;;;;10436924;28;20029;-67
2023/05/04 09:04:33;;;;;;;11.75;6.10;;;13.10;90.00;;;;;;10427118;28;20025;-67
2023/05/04 09:09:34;;;;;;;13.38;5.88;;;13.20;89.60;;;;;;10431050;28;20033;-68
2023/05/04 09:14:35;;;;;;;9.20;5.85;;;13.10;89.50;;;;;;10433827;28;20557;-68
2023/05/04 09:19:37;;;;;;;8.50;5.38;;;13.20;89.70;;;;;;10433273;28;20233;-68
2023/05/04 09:24:38;;;;;;;9.20;5.80;;;13.40;89.70;;;;;;10435628;28;20400;-71
2023/05/04 09:29:41;;;;;;;9.13;5.63;;;13.60;89.60;;;;;;10426689;28;20028;-70
2023/05/04 09:34:52;;;;;;;10.68;5.80;;;13.90;89.40;;;;;;10427089;28;20044;-68
2023/05/04 09:39:59;;;;;;;11.57;6.15;;;14.00;88.00;;;;;;10433910;28;20032;-68
2023/05/04 09:45:06;;;;;;;7.13;5.13;;;14.10;87.80;;;;;;10435713;28;20471;-68
2023/05/04 09:50:16;;;;;;;10.60;5.45;;;14.20;87.10;;;;;;10432156;28;20113;-69
2023/05/04 09:55:18;;;;;;;10.38;5.47;;;14.40;87.30;;;;;;10431309;28;20028;-68
2023/05/04 10:00:19;;;;;;;11.65;5.43;;;14.50;86.50;;;;;;10430680;28;20028;-68
2023/05/04 10:05:21;;;;;;;9.95;5.30;;;14.60;86.40;;;;;;10429943;28;20029;-69
2023/05/04 10:10:22;;;;;;;14.63;5.85;;;14.70;86.20;;;;;;10432076;28;20079;-68
2023/05/04 10:15:23;;;;;;;9.57;5.18;;;14.80;85.90;;;;;;10430051;28;20032;-68
2023/05/04 10:21:02;;;;;;;12.68;5.70;;;14.90;85.90;;;;;;10434742;28;20021;-68
2023/05/04 10:26:22;;;;;;;;;;;14.90;85.70;;;;;;10435232;28;20194;-69
2023/05/04 10:31:22;;;;;;;9.48;5.72;;;15.00;85.90;;;;;;10440721;28;19912;-69
2023/05/04 10:36:33;;;;;;;9.63;5.40;;;15.00;85.50;;;;;;10440497;28;20491;-69
2023/05/04 10:41:34;;;;;;;7.20;4.55;;;15.00;86.40;;;;;;10437982;28;20027;-71
2023/05/04 10:46:35;;;;;;;13.48;5.68;;;15.30;85.40;;;;;;10435781;28;20531;-68
2023/05/04 10:51:36;;;;;;;12.25;4.85;;;15.40;84.90;;;;;;10440723;28;20445;-68
2023/05/04 10:56:36;;;;;;;7.80;4.47;;;15.70;84.30;;;;;;10426054;28;20622;-68
2023/05/04 11:01:43;;;;;;;8.55;4.70;;;15.80;84.10;;;;;;10444689;28;20025;-68
2023/05/04 11:06:58;;;;;;;8.25;5.00;;;15.90;83.80;;;;;;10440160;28;20029;-68
2023/05/04 11:11:59;;;;;;;6.97;4.97;;;16.10;83.00;;;;;;10440402;28;20028;-68
2023/05/04 11:17:11;;;;;;;9.10;4.93;;;16.20;82.20;;;;;;10437467;28;20112;-69
2023/05/04 11:22:12;;;;;;;8.90;4.70;;;16.30;82.20;;;;;;10440999;28;20519;-70
2023/05/04 11:27:29;;;;;;;12.52;5.13;;;16.50;81.90;;;;;;10427899;28;20020;-67
2023/05/04 11:32:45;;;;;;;12.27;5.63;;;16.70;81.70;;;;;;10434821;28;20349;-68
2023/05/04 11:37:46;;;;;;;11.65;5.18;;;16.70;79.90;;;;;;10436979;28;20021;-68
2023/05/04 11:42:48;;;;;;;6.88;4.78;;;16.90;80.70;;;;;;10435007;28;20025;-68
2023/05/04 11:47:50;;;;;;;7.20;4.93;;;17.00;80.60;;;;;;10440878;28;20021;-68
2023/05/04 11:53:09;;;;;;;12.20;5.65;;;17.00;79.80;;;;;;10435400;28;20083;-67
2023/05/04 11:58:10;;;;;;;;;;;17.00;79.50;;;;;;10431856;28;20045;-67
2023/05/04 12:03:13;;;;;;;10.15;5.13;;;17.10;80.10;;;;;;10435575;28;20335;-67
2023/05/04 12:08:35;;;;;;;8.35;4.53;;;17.20;79.80;;;;;;10430849;28;20051;-66
2023/05/04 12:13:36;;;;;;;12.13;4.75;;;17.30;78.60;;;;;;10432590;28;20061;-68
2023/05/04 12:18:37;;;;;;;9.45;4.30;;;17.50;78.10;;;;;;10431233;28;20104;-68
2023/05/04 12:23:40;;;;;;;6.35;4.20;;;17.50;78.40;;;;;;10437539;28;20469;-68
2023/05/04 12:28:41;;;;;;;9.50;4.82;;;17.60;78.50;;;;;;10434505;28;20480;-68
2023/05/04 12:33:42;;;;;;;7.10;4.35;;;17.80;78.30;;;;;;10434230;28;20016;-68
2023/05/04 12:38:43;;;;;;;7.65;4.63;;;18.10;77.50;;;;;;10434697;28;20508;-68
2023/05/04 12:43:43;;;;;;;5.72;4.32;;;18.30;76.20;;;;;;10434144;28;20069;-68
2023/05/04 12:48:44;;;;;;;8.20;5.00;;;18.50;76.20;;;;;;10431254;28;20155;-68
2023/05/04 12:53:44;;;;;;;8.98;4.43;;;18.60;74.00;;;;;;10430911;28;20262;-69
2023/05/04 12:58:45;;;;;;;7.80;4.75;;;18.60;73.60;;;;;;10434193;28;20017;-68
2023/05/04 13:03:46;;;;;;;6.93;5.05;;;18.70;73.60;;;;;;10435087;28;20024;-68
2023/05/04 13:08:47;;;;;;;5.70;4.20;;;18.80;73.30;;;;;;10426198;28;20021;-68
2023/05/04 13:13:47;;;;;;;10.25;4.80;;;18.90;73.30;;;;;;10423235;28;20033;-68
2023/05/04 13:18:48;;;;;;;6.85;4.88;;;19.10;73.10;;;;;;10436640;28;20029;-68
2023/05/04 13:23:49;;;;;;;12.10;4.10;;;19.00;71.90;;;;;;10424366;28;20032;-68
2023/05/04 13:28:50;;;;;;;8.35;4.20;;;18.90;72.30;;;;;;10430911;28;20029;-67
2023/05/04 13:33:51;;;;;;;9.93;4.70;;;19.10;72.10;;;;;;10432577;28;20094;-69
2023/05/04 13:38:51;;;;;;;7.78;5.30;;;19.30;71.60;;;;;;10431124;28;20120;-70
2023/05/04 13:43:52;;;;;;;8.15;4.40;;;19.40;71.20;;;;;;10434643;28;20505;-70
2023/05/04 13:48:53;;;;;;;11.10;4.63;;;19.30;70.90;;;;;;10432781;28;20411;-70
2023/05/04 13:53:54;;;;;;;6.55;4.45;;;19.40;70.80;;;;;;10432062;28;20028;-67
2023/05/04 13:58:54;;;;;;;7.47;4.40;;;19.60;70.40;;;;;;10430294;28;20013;-68
2023/05/04 14:03:55;;;;;;;10.93;5.15;;;19.80;70.40;;;;;;10425193;28;20033;-68
2023/05/04 14:08:55;;;;;;;7.93;4.55;;;19.90;70.20;;;;;;10425707;28;20029;-68
2023/05/04 14:13:56;;;;;;;11.02;5.03;;;19.80;69.70;;;;;;10427804;28;20070;-68
2023/05/04 14:18:57;;;;;;;10.07;4.75;;;19.80;69.30;;;;;;10429367;28;20029;-68
2023/05/04 14:23:58;;;;;;;13.40;5.43;;;19.80;69.20;;;;;;10430646;28;20026;-68
2023/05/04 14:28:58;;;;;;;8.80;5.28;;;19.80;69.30;;;;;;10431519;28;20024;-68
2023/05/04 14:33:59;;;;;;;9.77;4.60;;;19.80;68.90;;;;;;10431006;28;20021;-68
2023/05/04 14:39:01;;;;;;;7.05;5.10;;;19.70;68.90;;;;;;10430740;28;20438;-68
2023/05/04 14:44:05;;;;;;;8.05;4.72;;;19.80;68.70;;;;;;10427227;28;20045;-68
2023/05/04 14:49:06;;;;;;;8.27;4.57;;;20.10;68.40;;;;;;10428048;28;20025;-68
2023/05/04 14:54:07;;;;;;;6.93;4.15;;;20.20;68.60;;;;;;10432215;28;20477;-69
2023/05/04 14:59:07;;;;;;;7.30;4.57;;;20.50;68.50;;;;;;10428030;28;20112;-71
2023/05/04 15:04:08;;;;;;;8.55;5.18;;;20.50;68.00;;;;;;10433396;28;20567;-71
2023/05/04 15:09:14;;;;;;;5.63;4.22;;;20.60;67.10;;;;;;10427043;28;20124;-68
2023/05/04 15:14:15;;;;;;;10.43;4.53;;;20.60;67.40;;;;;;10439038;28;20039;-68
2023/05/04 15:19:15;;;;;;;10.02;5.20;;;20.60;67.00;;;;;;10437744;28;20025;-69
2023/05/04 15:24:16;;;;;;;7.72;4.55;;;20.70;66.80;;;;;;10430157;28;20261;-68
2023/05/04 15:29:16;;;;;;;8.98;4.60;;;20.70;66.90;;;;;;10440530;28;20021;-69
2023/05/04 15:34:17;;;;;;;9.32;4.97;;;20.70;66.70;;;;;;10435447;28;20027;-69
2023/05/04 15:39:18;;;;;;;11.95;5.10;;;20.80;66.10;;;;;;10440149;28;20399;-68
2023/05/04 15:44:19;;;;;;;16.08;5.05;;;20.70;65.90;;;;;;10430622;28;20259;-68
2023/05/04 15:49:22;;;;;;;8.15;5.07;;;20.60;66.30;;;;;;10434884;28;20040;-69
2023/05/04 15:54:22;;;;;;;7.68;4.68;;;20.60;66.10;;;;;;10430524;28;20630;-69
2023/05/04 15:59:23;;;;;;;8.80;4.78;;;20.50;65.80;;;;;;10438064;28;20036;-68
2023/05/04 16:04:23;;;;;;;7.70;4.20;;;20.40;65.60;;;;;;10441298;28;20040;-69
2023/05/04 16:09:26;;;;;;;8.68;4.32;;;20.30;65.70;;;;;;10439642;28;20119;-69
2023/05/04 16:14:33;;;;;;;7.88;4.55;;;20.10;66.20;;;;;;10467645;22;20283;-69
2023/05/04 16:19:34;;;;;;;9.15;4.22;;;20.00;66.20;;;;;;10473370;28;20031;-70
2023/05/04 16:24:35;;;;;;;6.70;4.28;;;19.90;66.30;;;;;;10475387;28;20033;-73
2023/05/04 16:29:35;;;;;;;9.85;4.72;;;19.70;66.10;;;;;;10445427;28;20021;-73
2023/05/04 16:34:36;;;;;;;7.05;4.32;;;19.70;66.10;;;;;;10443170;28;20021;-73
2023/05/04 16:39:37;;;;;;;7.03;4.18;;;19.50;66.50;;;;;;10439445;28;20013;-73
2023/05/04 16:44:37;;;;;;;7.15;4.22;;;19.50;66.40;;;;;;10434586;28;20370;-72
2023/05/04 16:49:38;;;;;;;7.60;4.20;;;19.40;65.90;;;;;;10440830;28;20025;-72
2023/05/04 16:54:38;;;;;;;8.70;4.85;;;19.40;65.80;;;;;;10437354;28;20078;-73
2023/05/04 16:59:39;;;;;;;13.57;5.10;;;19.30;66.00;;;;;;10437844;28;20037;-67
2023/05/04 17:04:40;;;;;;;9.18;4.65;;;19.30;66.50;;;;;;10436428;28;20020;-72
2023/05/04 17:09:41;;;;;;;9.77;5.03;;;19.30;66.80;;;;;;10436344;28;20546;-73
2023/05/04 17:14:42;;;;;;;8.70;4.80;;;19.30;66.70;;;;;;10437664;28;20045;-72
2023/05/04 17:19:42;;;;;;;8.70;4.65;;;19.30;66.80;;;;;;10435068;28;20110;-72
2023/05/04 17:24:43;;;;;;;7.65;4.40;;;19.30;67.10;;;;;;10435596;28;20044;-68
2023/05/04 17:29:44;;;;;;;9.05;4.03;;;19.10;67.40;;;;;;10434509;28;20111;-68
2023/05/04 17:34:45;;;;;;;8.90;4.30;;;19.10;67.90;;;;;;10430594;28;20021;-66
2023/05/04 17:39:46;;;;;;;6.25;3.60;;;19.10;68.60;;;;;;10437617;28;20499;-68
2023/05/04 17:44:46;;;;;;;7.72;3.75;;;19.10;69.10;;;;;;10434954;28;20529;-66
2023/05/04 17:49:47;;;;;;;5.15;3.40;;;19.00;69.50;;;;;;10424863;28;20036;-66
2023/05/04 17:54:47;;;;;;;4.78;3.15;;;19.00;70.10;;;;;;10437794;28;20037;-66
2023/05/04 17:59:48;;;;;;;5.35;3.03;;;18.90;70.50;;;;;;10434512;28;20029;-68
2023/05/04 18:04:49;;;;;;;5.88;3.05;;;18.90;70.90;;;;;;10437530;28;20443;-67
2023/05/04 18:09:49;;;;;;;5.03;3.10;;;18.90;71.30;;;;;;10437996;28;20025;-68
2023/05/04 18:14:52;;;;;;;4.93;2.85;;;18.80;71.70;;;;;;10437903;28;20029;-68
2023/05/04 18:19:53;;;;;;;6.13;2.80;;;18.80;72.00;;;;;;10433428;28;20029;-67
2023/05/04 18:24:53;;;;;;;4.00;3.08;;;18.70;72.40;;;;;;10441400;28;20028;-67
2023/05/04 18:29:54;;;;;;;4.07;2.40;;;18.70;72.70;;;;;;10433462;28;20139;-65
2023/05/04 18:34:56;;;;;;;3.63;2.55;;;18.70;73.00;;;;;;10431352;28;20108;-67
2023/05/04 18:39:57;;;;;;;3.35;2.40;;;18.60;73.30;;;;;;10434119;28;20373;-67
2023/05/04 18:44:58;;;;;;;3.80;2.40;;;18.50;73.60;;;;;;10433822;28;20025;-67
2023/05/04 18:49:59;;;;;;;3.97;2.30;;;18.50;73.90;;;;;;10441683;28;20017;-67
2023/05/04 18:54:59;;;;;;;3.05;2.30;;;18.50;74.20;;;;;;10447469;28;20051;-67
2023/05/04 19:00:00;;;;;;;3.35;2.35;;;18.40;74.50;;;;;;10447713;28;20017;-68
2023/05/04 19:05:01;;;;;;;5.10;2.90;;;18.30;74.70;;;;;;10446632;28;20021;-66
2023/05/04 19:10:02;;;;;;;3.35;2.40;;;18.20;74.90;;;;;;10442547;28;20025;-66
2023/05/04 19:15:04;;;;;;;4.50;2.30;;;18.30;75.20;;;;;;10441019;28;20063;-66
2023/05/04 19:20:05;;;;;;;4.80;2.75;;;18.20;75.50;;;;;;10446930;28;20036;-66
2023/05/04 19:25:06;;;;;;;3.72;2.60;;;18.10;75.80;;;;;;10448094;28;20091;-66
2023/05/04 19:30:07;;;;;;;4.55;2.72;;;18.10;76.10;;;;;;10440863;28;20567;-67
2023/05/04 19:35:08;;;;;;;4.90;2.45;;;18.10;76.40;;;;;;10442352;28;20098;-66
2023/05/04 19:40:09;;;;;;;3.75;2.63;;;18.10;76.80;;;;;;10437402;28;20600;-67
2023/05/04 19:45:13;;;;;;;4.93;3.38;;;18.00;76.90;;;;;;10439829;28;20063;-66
2023/05/04 19:50:15;;;;;;;3.65;2.70;;;18.00;77.20;;;;;;10438120;28;20029;-66
2023/05/04 19:55:16;;;;;;;9.00;2.90;;;18.00;77.50;;;;;;10441869;28;20029;-66
2023/05/04 20:00:18;;;;;;;4.40;2.65;;;17.90;77.70;;;;;;10442442;28;20488;-66
2023/05/04 20:05:19;;;;;;;6.03;2.83;;;17.80;77.90;;;;;;10436862;28;20060;-66
2023/05/04 20:10:24;;;;;;;5.32;2.75;;;17.80;78.10;;;;;;10436492;28;20413;-66
2023/05/04 20:15:25;;;;;;;4.25;2.80;;;17.80;78.90;;;;;;10437777;28;20036;-66
2023/05/04 20:20:25;;;;;;;5.18;3.00;;;17.80;78.60;;;;;;10442368;28;20037;-67
2023/05/04 20:25:26;;;;;;;3.63;2.63;;;17.80;78.80;;;;;;10440625;28;20070;-66
2023/05/04 20:30:27;;;;;;;4.47;2.80;;;17.70;79.00;;;;;;10439548;28;20029;-66
2023/05/04 20:35:28;;;;;;;4.70;2.80;;;17.70;79.30;;;;;;10437722;28;20040;-66
2023/05/04 20:40:28;;;;;;;5.22;3.22;;;17.70;79.70;;;;;;10439313;28;20032;-67
2023/05/04 20:45:29;;;;;;;7.00;3.10;;;17.60;79.80;;;;;;10446570;28;20028;-67
2023/05/04 20:50:30;;;;;;;5.55;2.90;;;17.60;80.20;;;;;;10450687;28;20036;-67
2023/05/04 20:55:31;;;;;;;6.47;3.00;;;17.60;80.50;;;;;;10433457;28;20047;-67
2023/05/04 21:00:32;;;;;;;7.13;3.30;;;17.50;80.80;;;;;;10442814;28;20025;-66
2023/05/04 21:05:36;;;;;;;7.70;3.03;;;17.50;81.10;;;;;;10435591;28;20031;-67
2023/05/04 21:10:37;;;;;;;5.90;3.65;;;17.50;81.40;;;;;;10438918;28;20025;-66
2023/05/04 21:15:38;;;;;;;6.75;3.40;;;17.40;81.80;;;;;;10441616;28;20052;-67
2023/05/04 21:20:39;;;;;;;4.05;3.10;;;17.40;82.00;;;;;;10443568;28;20078;-67
2023/05/04 21:25:39;;;;;;;6.50;3.10;;;17.40;82.40;;;;;;10436751;28;20026;-66
2023/05/04 21:30:41;;;;;;;6.85;3.35;;;17.40;82.60;;;;;;10440192;28;20040;-67
2023/05/04 21:35:41;;;;;;;6.63;3.03;;;17.30;82.80;;;;;;10438756;28;20021;-67
2023/05/04 21:40:42;;;;;;;6.15;3.10;;;17.30;82.90;;;;;;10443902;28;20029;-66
2023/05/04 21:45:42;;;;;;;6.40;3.55;;;17.30;83.20;;;;;;10421585;28;20102;-66
2023/05/04 21:50:43;;;;;;;5.10;3.38;;;17.20;83.30;;;;;;10441606;28;20094;-65
2023/05/04 21:55:44;;;;;;;4.45;3.20;;;17.20;83.60;;;;;;10453277;28;20025;-65
2023/05/04 22:00:44;;;;;;;5.22;3.25;;;17.20;83.70;;;;;;10438941;28;20061;-65
2023/05/04 22:05:56;;;;;;;8.73;3.92;;;17.10;83.80;;;;;;10430584;28;20048;-65
2023/05/04 22:11:00;;;;;;;5.22;3.35;;;17.10;84.10;;;;;;10444424;28;20538;-65
2023/05/04 22:16:00;;;;;;;5.35;3.22;;;17.00;84.00;;;;;;10435907;28;20143;-65
2023/05/04 22:21:01;;;;;;;5.88;3.45;;;17.00;84.10;;;;;;10439877;28;20021;-65
2023/05/04 22:26:02;;;;;;;4.32;3.17;;;17.00;84.20;;;;;;10455654;28;20025;-65
2023/05/04 22:31:02;;;;;;;4.25;3.35;;;16.90;84.40;;;;;;10449949;28;20019;-65
2023/05/04 22:36:03;;;;;;;4.72;2.90;;;16.90;84.40;;;;;;10440775;28;20318;-65
2023/05/04 22:41:04;;;;;;;4.35;3.25;;;16.90;84.50;;;;;;10444261;28;20033;-65
2023/05/04 22:46:05;;;;;;;5.32;2.90;;;16.80;84.50;;;;;;10445453;28;20048;-65
2023/05/04 22:51:07;;;;;;;6.40;3.45;;;16.80;84.60;;;;;;10448371;28;20025;-66
2023/05/04 22:56:07;;;;;;;5.72;2.80;;;16.80;84.60;;;;;;10447421;28;20029;-65
2023/05/04 23:01:11;;;;;;;11.93;4.35;;;16.80;84.70;;;;;;10447072;28;20098;-65
2023/05/04 23:06:12;;;;;;;4.82;2.90;;;16.70;84.70;;;;;;10441905;28;20048;-65
2023/05/04 23:11:13;;;;;;;6.47;3.60;;;16.70;84.80;;;;;;10441866;28;20049;-65
2023/05/04 23:16:13;;;;;;;4.10;2.72;;;16.60;84.80;;;;;;10448552;28;20780;-65
2023/05/04 23:21:14;;;;;;;4.53;2.90;;;16.60;84.90;;;;;;10441970;28;20032;-65
2023/05/04 23:26:14;;;;;;;4.10;2.80;;;16.70;85.00;;;;;;10457386;28;20500;-65
2023/05/04 23:31:15;;;;;;;4.90;2.95;;;16.60;85.00;;;;;;10455221;28;20017;-65
2023/05/04 23:36:15;;;;;;;4.03;2.90;;;16.60;85.00;;;;;;10445975;28;20040;-65
2023/05/04 23:41:16;;;;;;;4.75;2.60;;;16.60;85.20;;;;;;10456194;28;20037;-65
2023/05/04 23:46:17;;;;;;;4.90;2.65;;;16.50;85.20;;;;;;10441645;28;20028;-65
2023/05/04 23:51:18;;;;;;;5.03;3.03;;;16.60;85.40;;;;;;10442858;28;20018;-65
2023/05/04 23:56:18;;;;;;;5.97;3.25;;;16.50;85.40;;;;;;10450924;28;20041;-65
